Time;durP1;ratioP1;P1;durP2;ratioP2;P2;SDS_P1;SDS_P2;PMS_P1;PMS_P2;Temp;Humidity;BMP_temperature;BMP_pressure;BME280_temperature;BME280_humidity;BME280_pressure;Samples;Min_cycle;Max_cycle;Signal;HPM_P1;HPM_P2
2024/01/19 00:00:16;;;;;;;;;;;19.20;49.10;;;;;;5033308;28;19921;-64
2024/01/19 00:02:41;;;;;;;;;;;19.20;49.00;;;;;;5034159;28;19975;-64
2024/01/19 00:05:07;;;;;;;;;;;19.20;49.00;;;;;;5016246;28;19931;-64
2024/01/19 00:07:32;;;;;;;;;;;19.20;48.90;;;;;;5033161;28;19921;-64
2024/01/19 00:09:58;;;;;;;;;;;19.10;48.80;;;;;;5033010;28;20483;-64
2024/01/19 00:12:23;;;;;;;;;;;19.10;48.80;;;;;;5016512;28;19932;-64
2024/01/19 00:14:49;;;;;;;;;;;19.10;48.80;;;;;;5015262;28;20439;-64
2024/01/19 00:17:14;;;;;;;;;;;19.10;48.80;;;;;;5012716;28;19925;-64
2024/01/19 00:19:39;;;;;;;;;;;19.10;48.80;;;;;;5013917;28;19932;-64
2024/01/19 00:22:05;;;;;;;;;;;19.10;48.80;;;;;;5012116;28;19972;-64
2024/01/19 00:24:30;;;;;;;;;;;19.00;48.70;;;;;;4996674;28;19926;-64
2024/01/19 00:26:56;;;;;;;;;;;19.00;48.70;;;;;;4994849;28;20012;-64
2024/01/19 00:29:22;;;;;;;;;;;19.10;48.80;;;;;;5013794;28;19926;-64
2024/01/19 00:31:48;;;;;;;;;;;19.00;48.70;;;;;;5013956;28;19926;-64
2024/01/19 00:34:14;;;;;;;;;;;19.00;48.70;;;;;;5031541;28;20392;-64
2024/01/19 00:36:39;;;;;;;;;;;19.00;48.70;;;;;;5015203;28;19925;-64
2024/01/19 00:39:05;;;;;;;;;;;19.00;48.60;;;;;;5032692;28;19925;-64
2024/01/19 00:41:30;;;;;;;;;;;19.00;48.70;;;;;;5032836;28;19979;-64
2024/01/19 00:43:57;;;;;;;;;;;19.00;48.60;;;;;;5034841;28;19952;-64
2024/01/19 00:46:22;;;;;;;;;;;18.90;48.60;;;;;;5053343;28;20376;-64
2024/01/19 00:48:48;;;;;;;;;;;18.90;48.70;;;;;;5052597;28;19992;-64
2024/01/19 00:51:14;;;;;;;;;;;18.90;48.60;;;;;;5052957;28;19935;-64
2024/01/19 00:53:39;;;;;;;;;;;18.90;48.70;;;;;;5053083;28;20299;-64
2024/01/19 00:56:06;;;;;;;;;;;18.90;48.60;;;;;;5052010;28;19925;-64
2024/01/19 00:58:32;;;;;;;;;;;18.90;48.60;;;;;;5035325;28;19925;-64
2024/01/19 01:00:58;;;;;;;;;;;18.90;48.60;;;;;;5052911;28;20008;-64
2024/01/19 01:03:23;;;;;;;;;;;18.80;48.50;;;;;;5052579;28;20296;-64
2024/01/19 01:05:49;;;;;;;;;;;18.90;48.60;;;;;;5035512;28;19925;-64
2024/01/19 01:08:15;;;;;;;;;;;18.80;48.50;;;;;;5052724;28;20436;-64
2024/01/19 01:10:41;;;;;;;;;;;18.80;48.50;;;;;;5052182;28;19932;-64
2024/01/19 01:13:06;;;;;;;;;;;18.80;48.50;;;;;;5052834;28;19925;-63
2024/01/19 01:15:32;;;;;;;;;;;18.80;48.40;;;;;;5053039;28;19925;-64
2024/01/19 01:17:57;;;;;;;;;;;18.80;48.50;;;;;;5054951;28;20005;-64
2024/01/19 01:20:23;;;;;;;;;;;18.80;48.50;;;;;;5057203;28;20395;-64
2024/01/19 01:22:48;;;;;;;;;;;18.80;48.40;;;;;;5038951;28;20380;-64
2024/01/19 01:25:14;;;;;;;;;;;18.80;48.40;;;;;;5037754;28;19932;-64
2024/01/19 01:27:39;;;;;;;;;;;18.80;48.40;;;;;;5057169;28;20392;-64
2024/01/19 01:30:07;;;;;;;;;;;18.80;48.60;;;;;;5056024;28;20375;-64
2024/01/19 01:32:33;;;;;;;;;;;18.80;48.50;;;;;;5038445;28;19925;-64
2024/01/19 01:34:59;;;;;;;;;;;18.70;48.40;;;;;;5056054;28;19925;-64
2024/01/19 01:37:24;;;;;;;;;;;18.80;48.50;;;;;;5037466;28;19959;-64
2024/01/19 01:39:50;;;;;;;;;;;18.70;48.50;;;;;;5055144;28;19950;-64
2024/01/19 01:42:15;;;;;;;;;;;18.70;48.50;;;;;;5038234;28;19924;-64
2024/01/19 01:44:41;;;;;;;;;;;18.80;48.50;;;;;;5055629;28;19959;-64
2024/01/19 01:47:06;;;;;;;;;;;18.80;48.50;;;;;;5056028;28;20380;-64
2024/01/19 01:49:32;;;;;;;;;;;18.80;48.50;;;;;;5056540;28;20009;-64
2024/01/19 01:51:57;;;;;;;;;;;18.80;48.50;;;;;;5037419;28;20335;-64
2024/01/19 01:54:23;;;;;;;;;;;18.80;48.50;;;;;;5056268;28;19974;-64
2024/01/19 01:56:48;;;;;;;;;;;18.80;48.40;;;;;;5038783;28;20296;-64
2024/01/19 01:59:14;;;;;;;;;;;18.80;48.40;;;;;;5036841;28;19990;-64
2024/01/19 02:01:39;;;;;;;;;;;18.80;48.40;;;;;;5038272;28;19929;-64
2024/01/19 02:04:08;;;;;;;;;;;18.80;48.40;;;;;;5038260;28;20019;-64
2024/01/19 02:06:33;;;;;;;;;;;18.80;48.40;;;;;;5055413;28;20427;-64
2024/01/19 02:08:58;;;;;;;;;;;18.80;48.40;;;;;;5038064;28;19924;-64
2024/01/19 02:11:24;;;;;;;;;;;18.80;48.40;;;;;;5056078;28;20027;-64
2024/01/19 02:13:49;;;;;;;;;;;18.80;48.40;;;;;;5037424;28;19932;-64
2024/01/19 02:16:15;;;;;;;;;;;18.80;48.40;;;;;;5037705;28;19925;-64
2024/01/19 02:18:40;;;;;;;;;;;18.80;48.40;;;;;;5056325;28;19924;-64
2024/01/19 02:21:06;;;;;;;;;;;18.80;48.40;;;;;;5055089;28;19925;-64
2024/01/19 02:23:33;;;;;;;;;;;18.80;48.40;;;;;;5055576;28;19947;-64
2024/01/19 02:25:59;;;;;;;;;;;18.80;48.30;;;;;;5055537;28;19935;-64
2024/01/19 02:28:24;;;;;;;;;;;18.80;48.30;;;;;;5053014;28;20331;-64
2024/01/19 02:30:50;;;;;;;;;;;18.80;48.30;;;;;;5055636;28;19925;-64
2024/01/19 02:33:15;;;;;;;;;;;18.80;48.30;;;;;;5037521;28;19950;-64
2024/01/19 02:35:41;;;;;;;;;;;18.80;48.30;;;;;;5027315;28;20454;-64
2024/01/19 02:38:06;;;;;;;;;;;18.80;48.30;;;;;;5014933;28;20020;-64
2024/01/19 02:40:32;;;;;;;;;;;18.80;48.30;;;;;;4997486;28;19926;-64
2024/01/19 02:42:57;;;;;;;;;;;18.80;48.30;;;;;;4997477;28;20388;-64
2024/01/19 02:45:23;;;;;;;;;;;18.90;48.30;;;;;;5023633;28;20181;-64
2024/01/19 02:47:48;;;;;;;;;;;18.90;48.30;;;;;;5039487;28;20622;-64
2024/01/19 02:50:14;;;;;;;;;;;18.90;48.30;;;;;;5055250;28;20395;-64
2024/01/19 02:52:39;;;;;;;;;;;18.90;48.30;;;;;;5037057;28;19976;-64
2024/01/19 02:55:05;;;;;;;;;;;18.90;48.30;;;;;;5036363;28;19924;-64
2024/01/19 02:57:31;;;;;;;;;;;18.90;48.30;;;;;;5055054;28;19932;-64
2024/01/19 02:59:56;;;;;;;;;;;18.90;48.20;;;;;;5037019;28;19921;-64
2024/01/19 03:02:23;;;;;;;;;;;18.90;48.20;;;;;;5036663;28;19925;-64
2024/01/19 03:04:48;;;;;;;;;;;18.90;48.20;;;;;;5016836;28;19925;-64
2024/01/19 03:07:14;;;;;;;;;;;18.90;48.10;;;;;;5017057;28;20049;-64
2024/01/19 03:09:39;;;;;;;;;;;18.90;48.20;;;;;;5017127;28;19980;-64
2024/01/19 03:12:05;;;;;;;;;;;18.90;48.10;;;;;;5034815;28;19960;-64
2024/01/19 03:14:32;;;;;;;;;;;18.90;48.10;;;;;;5015217;28;19952;-64
2024/01/19 03:16:58;;;;;;;;;;;18.90;48.10;;;;;;5014217;28;19929;-64
2024/01/19 03:19:23;;;;;;;;;;;18.90;48.10;;;;;;5015198;28;20381;-64
2024/01/19 03:21:49;;;;;;;;;;;18.90;48.10;;;;;;5031887;28;19931;-64
2024/01/19 03:24:14;;;;;;;;;;;18.90;48.10;;;;;;5034046;28;19925;-64
2024/01/19 03:26:42;;;;;;;;;;;18.90;48.00;;;;;;5034565;28;19925;-64
2024/01/19 03:29:08;;;;;;;;;;;18.90;48.00;;;;;;5034369;28;19926;-64
2024/01/19 03:31:34;;;;;;;;;;;18.90;48.00;;;;;;5016101;28;19972;-64
2024/01/19 03:33:59;;;;;;;;;;;18.90;48.00;;;;;;5013488;28;21863;-64
2024/01/19 03:36:25;;;;;;;;;;;18.90;48.00;;;;;;5033555;28;19964;-64
2024/01/19 03:38:50;;;;;;;;;;;18.90;48.00;;;;;;5034583;28;19925;-64
2024/01/19 03:41:15;;;;;;;;;;;19.00;48.00;;;;;;5053697;28;19924;-64
2024/01/19 03:43:41;;;;;;;;;;;19.00;48.00;;;;;;5054513;28;20334;-64
2024/01/19 03:46:07;;;;;;;;;;;19.00;48.00;;;;;;5034743;28;19928;-64
2024/01/19 03:48:32;;;;;;;;;;;19.00;48.00;;;;;;5036364;28;19948;-64
2024/01/19 03:50:58;;;;;;;;;;;19.00;48.00;;;;;;5053041;28;19921;-64
2024/01/19 03:53:23;;;;;;;;;;;19.00;47.90;;;;;;5053524;28;19925;-64
2024/01/19 03:55:49;;;;;;;;;;;19.00;47.90;;;;;;5054351;28;19924;-64
2024/01/19 03:58:14;;;;;;;;;;;19.00;47.90;;;;;;5053004;28;20007;-64
2024/01/19 04:00:40;;;;;;;;;;;19.00;47.90;;;;;;5054142;28;20297;-64
2024/01/19 04:03:05;;;;;;;;;;;19.00;47.90;;;;;;5053591;28;19950;-64
2024/01/19 04:05:31;;;;;;;;;;;19.00;48.00;;;;;;5053251;28;20284;-64
2024/01/19 04:07:56;;;;;;;;;;;19.00;47.90;;;;;;5053507;28;19924;-64
2024/01/19 04:10:22;;;;;;;;;;;19.00;47.90;;;;;;5054191;28;20339;-64
2024/01/19 04:12:49;;;;;;;;;;;19.00;47.80;;;;;;5046049;28;19925;-64
2024/01/19 04:15:14;;;;;;;;;;;19.00;47.80;;;;;;5033570;28;19971;-64
2024/01/19 04:17:40;;;;;;;;;;;19.00;47.80;;;;;;5033624;28;19964;-64
2024/01/19 04:20:06;;;;;;;;;;;19.10;47.90;;;;;;5032902;28;20008;-64
2024/01/19 04:22:31;;;;;;;;;;;19.10;47.80;;;;;;5033567;28;19968;-64
2024/01/19 04:24:57;;;;;;;;;;;19.10;47.80;;;;;;5015361;28;19925;-64
2024/01/19 04:27:22;;;;;;;;;;;19.10;47.80;;;;;;5032771;28;19925;-64
2024/01/19 04:29:48;;;;;;;;;;;19.10;47.80;;;;;;5033549;28;20451;-64
2024/01/19 04:32:13;;;;;;;;;;;19.10;47.90;;;;;;5033216;28;20292;-64
2024/01/19 04:34:39;;;;;;;;;;;19.10;47.80;;;;;;5032728;28;19932;-64
2024/01/19 04:37:06;;;;;;;;;;;19.10;47.80;;;;;;5032512;28;20418;-64
2024/01/19 04:39:31;;;;;;;;;;;19.10;47.80;;;;;;5033648;28;19967;-64
2024/01/19 04:41:57;;;;;;;;;;;19.10;47.80;;;;;;5032470;28;19925;-64
2024/01/19 04:44:22;;;;;;;;;;;19.10;47.70;;;;;;5033468;28;19925;-64
2024/01/19 04:46:48;;;;;;;;;;;19.20;47.80;;;;;;5015400;28;19971;-64
2024/01/19 04:49:13;;;;;;;;;;;19.20;47.80;;;;;;5032058;28;20382;-64
2024/01/19 04:51:39;;;;;;;;;;;19.20;47.80;;;;;;5032051;28;19933;-64
2024/01/19 04:54:05;;;;;;;;;;;19.20;47.80;;;;;;5032147;28;19925;-64
2024/01/19 04:56:30;;;;;;;;;;;19.20;47.80;;;;;;5032886;28;20371;-64
2024/01/19 04:58:56;;;;;;;;;;;19.20;47.80;;;;;;5032865;28;20385;-63
2024/01/19 05:01:22;;;;;;;;;;;19.20;47.70;;;;;;5026729;28;19941;-64
2024/01/19 05:03:47;;;;;;;;;;;19.20;47.70;;;;;;5028669;28;19929;-64
2024/01/19 05:06:13;;;;;;;;;;;19.30;47.70;;;;;;5032219;28;19925;-64
2024/01/19 05:08:39;;;;;;;;;;;19.30;47.70;;;;;;5031690;28;20402;-64
2024/01/19 05:11:04;;;;;;;;;;;19.30;47.70;;;;;;5015080;28;20016;-64
2024/01/19 05:13:30;;;;;;;;;;;19.30;47.70;;;;;;5015897;28;20015;-64
2024/01/19 05:15:55;;;;;;;;;;;19.30;47.70;;;;;;5031808;28;20308;-64
2024/01/19 05:18:21;;;;;;;;;;;19.30;47.60;;;;;;5015721;28;20022;-64
2024/01/19 05:20:46;;;;;;;;;;;19.30;47.70;;;;;;5032811;28;20281;-64
2024/01/19 05:23:12;;;;;;;;;;;19.30;47.60;;;;;;5031627;28;19925;-64
2024/01/19 05:25:37;;;;;;;;;;;19.30;47.60;;;;;;5032708;28;20016;-64
2024/01/19 05:28:03;;;;;;;;;;;19.30;47.60;;;;;;5014773;28;19932;-64
2024/01/19 05:30:28;;;;;;;;;;;19.30;47.60;;;;;;5014331;28;19926;-63
2024/01/19 05:32:54;;;;;;;;;;;19.30;47.60;;;;;;5032507;28;19936;-63
2024/01/19 05:35:19;;;;;;;;;;;19.40;47.60;;;;;;5032673;28;19980;-64
2024/01/19 05:37:45;;;;;;;;;;;19.40;47.60;;;;;;5031851;28;19932;-64
2024/01/19 05:40:10;;;;;;;;;;;19.40;47.60;;;;;;5032798;28;19921;-64
2024/01/19 05:42:36;;;;;;;;;;;19.30;47.50;;;;;;5030706;28;19957;-64
2024/01/19 05:45:01;;;;;;;;;;;19.40;47.50;;;;;;5031342;28;19979;-64
2024/01/19 05:47:27;;;;;;;;;;;19.40;47.50;;;;;;5032364;28;19921;-64
2024/01/19 05:49:52;;;;;;;;;;;19.40;47.50;;;;;;5032225;28;19993;-64
2024/01/19 05:52:18;;;;;;;;;;;19.40;47.50;;;;;;5031899;28;19929;-64
2024/01/19 05:54:43;;;;;;;;;;;19.40;47.50;;;;;;5014922;28;19929;-64
2024/01/19 05:57:09;;;;;;;;;;;19.40;47.50;;;;;;5014772;28;19971;-64
2024/01/19 05:59:35;;;;;;;;;;;19.40;47.50;;;;;;5032077;28;19921;-63
2024/01/19 06:02:01;;;;;;;;;;;19.40;47.50;;;;;;5014818;28;20308;-64
2024/01/19 06:04:26;;;;;;;;;;;19.40;47.50;;;;;;5017880;28;19925;-64
2024/01/19 06:06:52;;;;;;;;;;;19.40;47.40;;;;;;5018275;28;19921;-64
2024/01/19 06:09:18;;;;;;;;;;;19.50;47.50;;;;;;5018672;28;19929;-64
2024/01/19 06:11:43;;;;;;;;;;;19.50;47.50;;;;;;5017810;28;20606;-64
2024/01/19 06:14:09;;;;;;;;;;;19.50;47.50;;;;;;5035916;28;19925;-64
2024/01/19 06:16:37;;;;;;;;;;;19.50;47.40;;;;;;5036267;28;20457;-64
2024/01/19 06:19:02;;;;;;;;;;;19.50;47.40;;;;;;5035082;28;19975;-64
2024/01/19 06:21:28;;;;;;;;;;;19.50;47.40;;;;;;5035974;28;19925;-64
2024/01/19 06:23:53;;;;;;;;;;;19.50;47.40;;;;;;5017427;28;20399;-64
2024/01/19 06:26:19;;;;;;;;;;;19.50;47.30;;;;;;5035294;28;19933;-64
2024/01/19 06:28:44;;;;;;;;;;;19.50;47.30;;;;;;5035851;28;19932;-64
2024/01/19 06:31:10;;;;;;;;;;;19.50;47.30;;;;;;5035412;28;19925;-64
2024/01/19 06:33:36;;;;;;;;;;;19.50;47.30;;;;;;5034683;28;19964;-63
2024/01/19 06:36:11;;;;;;;;;;;19.50;47.30;;;;;;5017456;28;19925;-64
2024/01/19 06:38:36;;;;;;;;;;;19.50;47.30;;;;;;5017374;28;19978;-64
2024/01/19 06:41:02;;;;;;;;;;;19.50;47.30;;;;;;5016784;28;19925;-64
2024/01/19 06:43:28;;;;;;;;;;;19.50;47.30;;;;;;5037197;28;19925;-64
2024/01/19 06:45:53;;;;;;;;;;;19.50;47.30;;;;;;5055211;28;20439;-64
2024/01/19 06:48:19;;;;;;;;;;;19.50;47.20;;;;;;5054361;28;19982;-64
2024/01/19 06:50:44;;;;;;;;;;;19.50;47.20;;;;;;5055491;28;19928;-64
2024/01/19 06:53:10;;;;;;;;;;;19.50;47.20;;;;;;5054825;28;20016;-64
2024/01/19 06:55:35;;;;;;;;;;;19.60;47.20;;;;;;5054466;28;19978;-64
2024/01/19 06:58:01;;;;;;;;;;;19.60;47.30;;;;;;5037106;28;20376;-63
2024/01/19 07:00:26;;;;;;;;;;;19.60;47.20;;;;;;5054990;28;19932;-64
2024/01/19 07:02:52;;;;;;;;;;;19.60;47.20;;;;;;5035826;28;19925;-64
2024/01/19 07:05:18;;;;;;;;;;;19.60;47.20;;;;;;5054906;28;20019;-64
2024/01/19 07:07:43;;;;;;;;;;;19.60;47.20;;;;;;5054112;28;19932;-64
2024/01/19 07:10:09;;;;;;;;;;;19.60;47.20;;;;;;5054653;28;19932;-63
2024/01/19 07:12:34;;;;;;;;;;;19.60;47.20;;;;;;5055080;28;20410;-64
2024/01/19 07:15:00;;;;;;;;;;;19.60;47.20;;;;;;5053049;28;20261;-65
2024/01/19 07:17:25;;;;;;;;;;;19.60;47.20;;;;;;5037182;28;19931;-66
2024/01/19 07:19:51;;;;;;;;;;;19.60;47.00;;;;;;5037075;28;19975;-65
2024/01/19 07:22:16;;;;;;;;;;;19.60;47.10;;;;;;5034204;28;20324;-66
2024/01/19 07:24:42;;;;;;;;;;;19.60;46.70;;;;;;5016891;28;20289;-66
2024/01/19 07:27:07;;;;;;;;;;;19.60;46.80;;;;;;5034178;28;19925;-66
2024/01/19 07:29:33;;;;;;;;;;;19.60;46.90;;;;;;5033953;28;19936;-65
2024/01/19 07:31:58;;;;;;;;;;;19.60;47.00;;;;;;5016504;28;19971;-65
2024/01/19 07:34:24;;;;;;;;;;;19.60;47.00;;;;;;5017423;28;20035;-65
2024/01/19 07:36:49;;;;;;;;;;;19.60;47.00;;;;;;5016051;28;19925;-65
2024/01/19 07:39:15;;;;;;;;;;;19.70;47.10;;;;;;5034229;28;19932;-67
2024/01/19 07:41:43;;;;;;;;;;;19.60;47.10;;;;;;5034170;28;20020;-66
2024/01/19 07:44:09;;;;;;;;;;;19.70;47.90;;;;;;5033001;28;19925;-68
2024/01/19 07:46:35;;;;;;;;;;;19.70;47.30;;;;;;5033548;28;20325;-69
2024/01/19 07:49:01;;;;;;;;;;;19.70;47.50;;;;;;5016465;28;19948;-65
2024/01/19 07:51:27;;;;;;;;;;;19.70;47.80;;;;;;5015838;28;20365;-65
2024/01/19 07:53:54;;;;;;;;;;;19.70;48.00;;;;;;5034309;28;19929;-66
2024/01/19 07:56:20;;;;;;;;;;;19.70;48.00;;;;;;5034222;28;19925;-66
2024/01/19 07:58:45;;;;;;;;;;;19.70;48.10;;;;;;5033688;28;19956;-65
2024/01/19 08:01:11;;;;;;;;;;;19.70;48.10;;;;;;5033804;28;20832;-65
2024/01/19 08:03:37;;;;;;;;;;;19.70;48.20;;;;;;5034119;28;19925;-64
2024/01/19 08:06:02;;;;;;;;;;;19.70;48.20;;;;;;5015657;28;19925;-65
2024/01/19 08:08:28;;;;;;;;;;;19.80;48.30;;;;;;5033778;28;20403;-67
2024/01/19 08:10:53;;;;;;;;;;;19.80;48.20;;;;;;5033607;28;19925;-66
2024/01/19 08:13:19;;;;;;;;;;;19.70;48.20;;;;;;5015095;28;20406;-64
2024/01/19 08:15:44;;;;;;;;;;;19.80;48.30;;;;;;5033609;28;19933;-68
2024/01/19 08:18:09;;;;;;;;;;;19.80;48.30;;;;;;5032942;28;20008;-67
2024/01/19 08:20:35;;;;;;;;;;;19.80;48.20;;;;;;5033357;28;19968;-65
2024/01/19 08:23:02;;;;;;;;;;;19.80;48.10;;;;;;5015582;28;19961;-65
2024/01/19 08:25:27;;;;;;;;;;;19.80;48.20;;;;;;5015365;28;19995;-65
2024/01/19 08:27:53;;;;;;;;;;;19.80;48.20;;;;;;5015624;28;20392;-65
2024/01/19 08:30:19;;;;;;;;;;;19.80;48.20;;;;;;5033341;28;19933;-70
2024/01/19 08:32:45;;;;;;;;;;;19.80;48.20;;;;;;5032424;28;19945;-64
2024/01/19 08:35:11;;;;;;;;;;;19.90;48.20;;;;;;5008445;28;19925;-66
2024/01/19 08:37:39;;;;;;;;;;;19.90;48.10;;;;;;5004557;28;19987;-62
2024/01/19 08:40:08;;;;;;;;;;;19.90;48.10;;;;;;5014251;28;19925;-64
2024/01/19 08:42:34;;;;;;;;;;;19.90;48.10;;;;;;5013221;28;19933;-65
2024/01/19 08:44:59;;;;;;;;;;;19.90;48.10;;;;;;5013555;28;19921;-64
2024/01/19 08:47:25;;;;;;;;;;;19.90;48.10;;;;;;5012645;28;20266;-65
2024/01/19 08:49:51;;;;;;;;;;;19.90;48.10;;;;;;5013868;28;19925;-65
2024/01/19 08:52:16;;;;;;;;;;;19.90;48.00;;;;;;5013271;28;19967;-65
2024/01/19 08:54:41;;;;;;;;;;;19.90;48.00;;;;;;5012731;28;19926;-65
2024/01/19 08:57:07;;;;;;;;;;;19.90;48.00;;;;;;5013130;28;19925;-65
2024/01/19 08:59:33;;;;;;;;;;;19.90;48.00;;;;;;5013416;28;20281;-64
2024/01/19 09:01:58;;;;;;;;;;;19.90;48.00;;;;;;5012580;28;19980;-64
2024/01/19 09:04:24;;;;;;;;;;;19.90;48.00;;;;;;5013702;28;19926;-65
2024/01/19 09:06:50;;;;;;;;;;;19.90;48.00;;;;;;5013469;28;19980;-65
2024/01/19 09:09:15;;;;;;;;;;;19.90;48.00;;;;;;5012497;28;20377;-65
2024/01/19 09:11:41;;;;;;;;;;;19.90;47.90;;;;;;5013472;28;19992;-65
2024/01/19 09:14:09;;;;;;;;;;;19.90;47.80;;;;;;5013133;28;19925;-65
2024/01/19 09:16:35;;;;;;;;;;;19.90;47.70;;;;;;5012549;28;19929;-65
2024/01/19 09:19:00;;;;;;;;;;;19.90;47.80;;;;;;5013623;28;20028;-65
2024/01/19 09:21:26;;;;;;;;;;;19.90;47.80;;;;;;5032046;28;20062;-65
2024/01/19 09:23:51;;;;;;;;;;;19.90;47.80;;;;;;5014757;28;19969;-65
2024/01/19 09:26:20;;;;;;;;;;;19.90;47.80;;;;;;5031861;28;19930;-65
2024/01/19 09:28:45;;;;;;;;;;;19.90;47.80;;;;;;5031726;28;19933;-64
2024/01/19 09:31:11;;;;;;;;;;;20.00;48.00;;;;;;5032073;28;19983;-65
2024/01/19 09:33:36;;;;;;;;;;;20.00;47.90;;;;;;5032793;28;20399;-65
2024/01/19 09:36:02;;;;;;;;;;;20.00;47.90;;;;;;5031592;28;20039;-65
2024/01/19 09:38:27;;;;;;;;;;;20.00;47.90;;;;;;5035303;28;20289;-65
2024/01/19 09:40:57;;;;;;;;;;;19.90;47.80;;;;;;5036649;28;19932;-65
2024/01/19 09:43:23;;;;;;;;;;;20.00;47.90;;;;;;5002238;28;19929;-66
2024/01/19 09:45:48;;;;;;;;;;;20.00;47.90;;;;;;5036754;28;20338;-66
2024/01/19 09:48:21;;;;;;;;;;;19.90;47.90;;;;;;5002047;28;20405;-66
2024/01/19 09:50:46;;;;;;;;;;;20.00;47.90;;;;;;5036131;28;19979;-67
2024/01/19 09:53:23;;;;;;;;;;;19.90;47.90;;;;;;5036272;28;19929;-64
2024/01/19 09:55:48;;;;;;;;;;;19.90;48.00;;;;;;5018300;28;19925;-66
2024/01/19 09:58:14;;;;;;;;;;;19.90;48.00;;;;;;5031192;28;19978;-67
2024/01/19 10:00:39;;;;;;;;;;;19.90;48.10;;;;;;5018781;28;19928;-64
2024/01/19 10:03:05;;;;;;;;;;;19.90;48.10;;;;;;5035706;28;20003;-61
2024/01/19 10:05:30;;;;;;;;;;;19.90;48.20;;;;;;5017972;28;19921;-61
2024/01/19 10:07:56;;;;;;;;;;;19.90;48.10;;;;;;5018306;28;20012;-61
2024/01/19 10:10:21;;;;;;;;;;;19.90;48.10;;;;;;5035880;28;20030;-71
2024/01/19 10:12:46;;;;;;;;;;;19.90;48.00;;;;;;5017451;28;19928;-69
2024/01/19 10:15:12;;;;;;;;;;;20.00;48.00;;;;;;5035529;28;19932;-71
2024/01/19 10:17:38;;;;;;;;;;;20.10;48.20;;;;;;5035466;28;20388;-68
2024/01/19 10:20:04;;;;;;;;;;;20.10;48.30;;;;;;5035700;28;19925;-67
2024/01/19 10:22:30;;;;;;;;;;;20.10;48.20;;;;;;5035772;28;20015;-67
2024/01/19 10:24:59;;;;;;;;;;;20.10;47.80;;;;;;5017052;28;19972;-67
2024/01/19 10:27:41;;;;;;;;;;;20.10;47.90;;;;;;5035412;28;19933;-67
2024/01/19 10:30:07;;;;;;;;;;;20.00;47.90;;;;;;5035095;28;19933;-67
2024/01/19 10:32:32;;;;;;;;;;;20.00;48.00;;;;;;5033750;28;19932;-67
2024/01/19 10:35:08;;;;;;;;;;;20.00;48.10;;;;;;4999969;28;19925;-66
2024/01/19 10:37:34;;;;;;;;;;;19.90;48.20;;;;;;5017181;28;19971;-66
2024/01/19 10:40:18;;;;;;;;;;;19.90;48.20;;;;;;5016510;28;19925;-66
2024/01/19 10:42:44;;;;;;;;;;;19.80;48.30;;;;;;5017786;28;20016;-66
2024/01/19 10:45:16;;;;;;;;;;;19.80;48.30;;;;;;5035572;28;20020;-66
2024/01/19 10:47:42;;;;;;;;;;;19.80;49.00;;;;;;5016850;28;20385;-66
2024/01/19 10:50:10;;;;;;;;;;;19.80;48.30;;;;;;5034069;28;19972;-66
2024/01/19 10:52:36;;;;;;;;;;;19.70;48.20;;;;;;5017848;28;19932;-66
2024/01/19 10:55:01;;;;;;;;;;;19.70;48.30;;;;;;5016582;28;19928;-66
2024/01/19 10:57:27;;;;;;;;;;;19.70;48.20;;;;;;5017864;28;20400;-66
2024/01/19 10:59:52;;;;;;;;;;;19.70;48.20;;;;;;5016500;28;20292;-66
2024/01/19 11:02:18;;;;;;;;;;;19.70;48.20;;;;;;5017793;28;19925;-66
2024/01/19 11:04:44;;;;;;;;;;;19.70;48.20;;;;;;5035520;28;19929;-66
2024/01/19 11:07:10;;;;;;;;;;;19.70;48.20;;;;;;5016868;28;19955;-66
2024/01/19 11:09:35;;;;;;;;;;;19.60;48.20;;;;;;5035324;28;20410;-67
2024/01/19 11:12:01;;;;;;;;;;;19.60;48.20;;;;;;5017388;28;19921;-66
2024/01/19 11:14:27;;;;;;;;;;;19.60;48.20;;;;;;5016455;28;19925;-66
2024/01/19 11:16:53;;;;;;;;;;;19.60;48.20;;;;;;5033967;28;19925;-67
2024/01/19 11:19:18;;;;;;;;;;;19.60;48.20;;;;;;5017018;28;19928;-66
2024/01/19 11:21:44;;;;;;;;;;;19.60;48.20;;;;;;5033829;28;20293;-70
2024/01/19 11:24:10;;;;;;;;;;;19.50;48.00;;;;;;5013838;28;19966;-67
2024/01/19 11:26:35;;;;;;;;;;;19.50;48.00;;;;;;5016532;28;19929;-66
2024/01/19 11:29:03;;;;;;;;;;;19.50;48.00;;;;;;5033509;28;20398;-66
2024/01/19 11:31:30;;;;;;;;;;;19.50;48.00;;;;;;4998033;28;19926;-66
2024/01/19 11:33:57;;;;;;;;;;;19.50;48.00;;;;;;5034412;28;20086;-66
2024/01/19 11:36:38;;;;;;;;;;;19.50;48.00;;;;;;4999626;28;20011;-66
2024/01/19 11:39:05;;;;;;;;;;;19.50;48.00;;;;;;5033907;28;19975;-66
2024/01/19 11:41:33;;;;;;;;;;;19.50;48.10;;;;;;5016803;28;20410;-66
2024/01/19 11:44:09;;;;;;;;;;;19.50;48.10;;;;;;5015966;28;20381;-66
2024/01/19 11:46:50;;;;;;;;;;;19.40;48.20;;;;;;5016553;28;19963;-66
2024/01/19 11:49:32;;;;;;;;;;;19.50;48.30;;;;;;5033391;28;20394;-66
2024/01/19 11:51:57;;;;;;;;;;;19.40;48.30;;;;;;5034332;28;19925;-65
2024/01/19 11:54:26;;;;;;;;;;;19.40;48.30;;;;;;5034069;28;20423;-66
2024/01/19 11:56:52;;;;;;;;;;;19.40;48.40;;;;;;5033065;28;19925;-70
2024/01/19 11:59:19;;;;;;;;;;;19.40;48.50;;;;;;5013252;28;20012;-65
2024/01/19 12:01:44;;;;;;;;;;;19.40;48.50;;;;;;4995962;28;19933;-65
2024/01/19 12:04:09;;;;;;;;;;;19.40;48.70;;;;;;5015011;28;19925;-65
2024/01/19 12:06:35;;;;;;;;;;;19.40;48.80;;;;;;5033238;28;20424;-64
2024/01/19 12:09:03;;;;;;;;;;;19.30;48.80;;;;;;5033206;28;19932;-65
2024/01/19 12:11:29;;;;;;;;;;;19.40;49.00;;;;;;5032923;28;19932;-65
2024/01/19 12:13:54;;;;;;;;;;;19.40;49.00;;;;;;5033289;28;19933;-63
2024/01/19 12:16:20;;;;;;;;;;;19.40;49.10;;;;;;5033277;28;19925;-64
2024/01/19 12:18:46;;;;;;;;;;;19.40;49.10;;;;;;5014780;28;20019;-63
2024/01/19 12:21:11;;;;;;;;;;;19.30;49.10;;;;;;5015219;28;20027;-63
2024/01/19 12:23:39;;;;;;;;;;;19.40;49.20;;;;;;5015432;28;20361;-63
2024/01/19 12:26:04;;;;;;;;;;;19.40;49.30;;;;;;5012729;28;19969;-63
2024/01/19 12:28:31;;;;;;;;;;;19.40;49.30;;;;;;5033131;28;20407;-64
2024/01/19 12:30:57;;;;;;;;;;;19.40;49.30;;;;;;5033026;28;19952;-64
2024/01/19 12:33:28;;;;;;;;;;;19.40;50.00;;;;;;5014544;28;19925;-64
2024/01/19 12:36:07;;;;;;;;;;;19.50;49.50;;;;;;5032729;28;19933;-64
2024/01/19 12:38:33;;;;;;;;;;;19.50;49.50;;;;;;5014047;28;19940;-64
2024/01/19 12:40:58;;;;;;;;;;;19.50;49.50;;;;;;5032610;28;19921;-64
2024/01/19 12:43:27;;;;;;;;;;;19.40;49.40;;;;;;5032928;28;20023;-64
2024/01/19 12:45:59;;;;;;;;;;;19.50;49.50;;;;;;5030971;28;19929;-77
2024/01/19 12:48:25;;;;;;;;;;;19.50;49.50;;;;;;5013378;28;20458;-65
2024/01/19 12:50:50;;;;;;;;;;;19.50;49.40;;;;;;5032204;28;19929;-66
2024/01/19 12:53:16;;;;;;;;;;;19.50;49.20;;;;;;5031426;28;19924;-66
2024/01/19 12:55:41;;;;;;;;;;;19.60;49.00;;;;;;5031939;28;20273;-66
2024/01/19 12:58:08;;;;;;;;;;;19.50;48.80;;;;;;5032339;28;20019;-65
2024/01/19 13:00:33;;;;;;;;;;;19.60;48.80;;;;;;5014702;28;20285;-65
2024/01/19 13:02:59;;;;;;;;;;;19.60;48.60;;;;;;5032420;28;19925;-65
2024/01/19 13:05:26;;;;;;;;;;;19.60;48.60;;;;;;5032646;28;20000;-65
2024/01/19 13:07:53;;;;;;;;;;;19.60;48.50;;;;;;5031370;28;19948;-65
2024/01/19 13:10:19;;;;;;;;;;;19.60;48.50;;;;;;5014898;28;19965;-65
2024/01/19 13:12:45;;;;;;;;;;;19.60;48.40;;;;;;5032090;28;19966;-65
2024/01/19 13:15:12;;;;;;;;;;;19.60;48.30;;;;;;5031606;28;20276;-65
2024/01/19 13:17:42;;;;;;;;;;;19.60;48.30;;;;;;5014515;28;19925;-65
2024/01/19 13:20:08;;;;;;;;;;;19.60;48.30;;;;;;5032245;28;19971;-65
2024/01/19 13:22:33;;;;;;;;;;;19.70;48.20;;;;;;5032077;28;19925;-65
2024/01/19 13:24:59;;;;;;;;;;;19.70;48.10;;;;;;5032354;28;19929;-65
2024/01/19 13:27:24;;;;;;;;;;;19.70;48.80;;;;;;5032245;28;20067;-65
2024/01/19 13:29:50;;;;;;;;;;;19.70;48.10;;;;;;5008671;28;20373;-64
2024/01/19 13:32:15;;;;;;;;;;;19.70;48.70;;;;;;5014394;28;19933;-65
2024/01/19 13:34:41;;;;;;;;;;;19.80;47.80;;;;;;5031793;28;19931;-65
2024/01/19 13:37:07;;;;;;;;;;;19.80;47.80;;;;;;5014954;28;19925;-65
2024/01/19 13:39:32;;;;;;;;;;;19.80;47.90;;;;;;5013699;28;19925;-64
2024/01/19 13:41:58;;;;;;;;;;;19.80;47.90;;;;;;5029469;28;19952;-60
2024/01/19 13:44:24;;;;;;;;;;;19.80;47.90;;;;;;5031176;28;19983;-59
2024/01/19 13:46:49;;;;;;;;;;;19.90;48.00;;;;;;5014347;28;19932;-56
2024/01/19 13:49:15;;;;;;;;;;;19.90;48.10;;;;;;5031933;28;20358;-64
2024/01/19 13:51:41;;;;;;;;;;;19.90;48.20;;;;;;5014682;28;19925;-57
2024/01/19 13:54:06;;;;;;;;;;;19.90;48.20;;;;;;5012949;28;19933;-57
2024/01/19 13:56:32;;;;;;;;;;;19.90;48.40;;;;;;5031073;28;20393;-57
2024/01/19 13:58:57;;;;;;;;;;;19.90;48.70;;;;;;5031862;28;19971;-57
2024/01/19 14:01:23;;;;;;;;;;;20.00;49.00;;;;;;5032000;28;20297;-57
2024/01/19 14:03:48;;;;;;;;;;;20.00;49.00;;;;;;5031409;28;19929;-58
2024/01/19 14:06:14;;;;;;;;;;;20.00;49.00;;;;;;5031864;28;19932;-58
2024/01/19 14:08:40;;;;;;;;;;;20.00;49.10;;;;;;5032418;28;20073;-57